Auburn Hills, Michigan
Current Conditions -  °F | °C
As of 2:15 PM on Friday 28 Nov 2014 (Local Time) from KVLL Reporting Station
Broken Clouds Broken Clouds  
Wind Chill: 20°   Ceiling: 3300
Heat Index: 29°   Visibility: 10mi
Dew Point: 13°   Wind: 12mph
Humidity: 50%   Direction: 200°SSW
Pressure: 30.22"   Gusts: NA
Location:  42.67°N, 83.22°W
Report Text: KVLL 281915Z AUTO 20010KT 10SM BKN033 M01/M11 A3022 RMK AO2 T10151107
Loading
Personal Weather Stations






























Interactive Weather Map New forecast layout! Learn more

10-Day Weather Forecast

Advertisements
Track Severe Weather on mobile